createdAt,value
2018-02-22T00:00:49.151Z,91455.36
2018-02-22T00:01:38.193Z,91452.14
2018-02-22T00:02:27.248Z,91449.48
2018-02-22T00:03:16.322Z,91451.33
2018-02-22T00:04:05.377Z,91447.97
2018-02-22T00:04:54.449Z,91444.95
2018-02-22T00:05:43.503Z,91450.78
2018-02-22T00:06:32.567Z,91443.88
2018-02-22T00:07:21.597Z,91446.22
2018-02-22T00:08:10.643Z,91448.06
2018-02-22T00:08:59.674Z,91445.34
2018-02-22T00:09:48.720Z,91437.92
2018-02-22T00:10:37.831Z,91444.05
2018-02-22T00:11:26.880Z,91446.01
2018-02-22T00:12:15.942Z,91442.75
2018-02-22T00:13:05.017Z,91452.47
2018-02-22T00:13:54.054Z,91446.01
2018-02-22T00:14:43.092Z,91441.14
2018-02-22T00:15:32.160Z,91444.23
2018-02-22T00:16:21.395Z,91446.45
2018-02-22T00:17:10.433Z,91442.20
2018-02-22T00:17:59.489Z,91437.60
2018-02-22T00:18:48.538Z,91438.39
2018-02-22T00:19:37.589Z,91442.03
2018-02-22T00:20:26.626Z,91439.64
2018-02-22T00:21:15.677Z,91432.81
2018-02-22T00:22:04.750Z,91435.12
2018-02-22T00:22:53.839Z,91433.87
2018-02-22T00:23:42.890Z,91429.00
2018-02-22T00:24:31.936Z,91433.08
2018-02-22T00:25:20.985Z,91433.16
2018-02-22T00:26:10.040Z,91425.37
2018-02-22T00:26:59.110Z,91427.14
2018-02-22T00:27:48.402Z,91428.12
2018-02-22T00:28:37.600Z,91429.17
2018-02-22T00:29:26.648Z,91422.00
2018-02-22T00:30:15.695Z,91420.67
2018-02-22T00:31:04.783Z,91427.67
2018-02-22T00:31:53.956Z,91427.50
2018-02-22T00:32:42.974Z,91424.03
2018-02-22T00:33:32.311Z,91429.17
2018-02-22T00:34:22.982Z,91424.13
2018-02-22T00:35:12.033Z,91422.27
2018-02-22T00:36:01.085Z,91420.84
2018-02-22T00:36:50.131Z,91415.70
2018-02-22T00:37:39.182Z,91417.92
2018-02-22T00:38:28.222Z,91414.55
2018-02-22T00:39:17.314Z,91423.86
2018-02-22T00:40:06.346Z,91422.53
2018-02-22T00:40:55.430Z,91419.25
2018-02-22T00:41:44.480Z,91419.34
2018-02-22T00:42:33.547Z,91416.31
2018-02-22T00:43:22.600Z,91417.96
2018-02-22T00:44:11.884Z,91420.44
2018-02-22T00:45:00.925Z,91419.46
2018-02-22T00:45:49.982Z,91408.90
2018-02-22T00:46:39.059Z,91414.94
2018-02-22T00:47:28.105Z,91414.50
2018-02-22T00:48:17.166Z,91413.09
2018-02-22T00:49:06.211Z,91414.72
2018-02-22T00:49:55.287Z,91411.27
2018-02-22T00:50:44.332Z,91413.05
2018-02-22T00:51:33.389Z,91410.57
2018-02-22T00:52:22.538Z,91409.51
2018-02-22T00:53:11.584Z,91407.30
2018-02-22T00:54:00.626Z,91407.47
2018-02-22T00:54:49.673Z,91408.89
2018-02-22T00:55:38.733Z,91406.94
2018-02-22T00:56:27.784Z,91404.37
2018-02-22T00:57:16.858Z,91408.62
2018-02-22T00:58:05.943Z,91407.81
2018-02-22T00:58:55.007Z,91408.97
2018-02-22T00:59:44.039Z,91401.44
2018-02-22T01:00:33.081Z,91405.25
2018-02-22T01:01:22.110Z,91406.67
2018-02-22T01:02:11.166Z,91401.62
2018-02-22T01:03:00.210Z,91403.84
2018-02-22T01:03:49.324Z,91404.73
2018-02-22T01:04:38.380Z,91409.41
2018-02-22T01:05:27.427Z,91406.77
2018-02-22T01:06:16.480Z,91408.27
2018-02-22T01:07:05.538Z,91407.84
2018-02-22T01:07:54.582Z,91405.02
2018-02-22T01:08:43.657Z,91403.04
2018-02-22T01:09:32.825Z,91397.02
2018-02-22T01:10:21.881Z,91403.30
2018-02-22T01:11:10.948Z,91397.63
2018-02-22T01:11:59.995Z,91400.30
2018-02-22T01:12:49.044Z,91396.66
2018-02-22T01:13:38.097Z,91402.16
2018-02-22T01:14:27.148Z,91400.12
2018-02-22T01:15:16.280Z,91398.08
2018-02-22T01:16:05.332Z,91396.92
2018-02-22T01:16:54.376Z,91397.02
2018-02-22T01:17:43.411Z,91400.03
2018-02-22T01:18:32.467Z,91400.91
2018-02-22T01:19:21.526Z,91401.53
2018-02-22T01:20:10.571Z,91395.95
2018-02-22T01:21:00.125Z,91397.45
2018-02-22T01:21:49.162Z,91398.97
2018-02-22T01:22:38.219Z,91396.03
2018-02-22T01:23:27.284Z,91390.89
2018-02-22T01:24:16.347Z,91396.56
2018-02-22T01:25:05.404Z,91389.63
2018-02-22T01:25:54.442Z,91391.27
2018-02-22T01:26:43.590Z,91392.14
2018-02-22T01:27:32.652Z,91388.85
2018-02-22T01:28:21.690Z,91388.48
2018-02-22T01:29:10.746Z,91390.53
2018-02-22T01:29:59.797Z,91395.05
2018-02-22T01:30:48.839Z,91390.09
2018-02-22T01:31:37.887Z,91384.88
2018-02-22T01:32:26.995Z,91386.30
2018-02-22T01:33:16.052Z,91386.92
2018-02-22T01:34:05.086Z,91388.43
2018-02-22T01:34:55.887Z,91387.28
2018-02-22T01:35:44.926Z,91385.16
2018-02-22T01:36:33.969Z,91387.73
2018-02-22T01:37:23.034Z,91388.62
2018-02-22T01:38:12.112Z,91388.36
2018-02-22T01:39:01.156Z,91394.77
2018-02-22T01:39:50.208Z,91399.66
2018-02-22T01:40:39.285Z,91391.58
2018-02-22T01:41:28.337Z,91392.11
2018-02-22T01:42:17.384Z,91392.20
2018-02-22T01:43:06.420Z,91390.13
2018-02-22T01:43:55.713Z,91391.14
2018-02-22T01:44:44.764Z,91388.13
2018-02-22T01:45:33.823Z,91385.20
2018-02-22T01:46:22.875Z,91395.40
2018-02-22T01:47:11.911Z,91384.36
2018-02-22T01:48:00.946Z,91386.22
2018-02-22T01:48:49.990Z,91389.48
2018-02-22T01:49:39.145Z,91387.27
2018-02-22T01:50:28.194Z,91391.96
2018-02-22T01:51:17.246Z,91392.48
2018-02-22T01:52:06.291Z,91398.45
2018-02-22T01:52:55.338Z,91389.77
2018-02-22T01:53:44.391Z,91389.31
2018-02-22T01:54:33.436Z,91384.72
2018-02-22T01:55:22.531Z,91385.78
2018-02-22T01:56:11.580Z,91387.11
2018-02-22T01:57:00.637Z,91391.53
2018-02-22T01:57:49.673Z,91388.44
2018-02-22T01:58:38.712Z,91387.41
2018-02-22T01:59:27.772Z,91394.25
2018-02-22T02:00:16.831Z,91390.00
2018-02-22T02:01:06.111Z,91393.18
2018-02-22T02:01:55.167Z,91388.05
2018-02-22T02:02:44.214Z,91390.52
2018-02-22T02:03:33.256Z,91383.73
2018-02-22T02:04:22.319Z,91386.57
2018-02-22T02:05:11.495Z,91380.90
2018-02-22T02:06:00.549Z,91385.98
2018-02-22T02:06:49.600Z,91381.56
2018-02-22T02:07:38.639Z,91386.72
2018-02-22T02:08:27.678Z,91388.50
2018-02-22T02:09:16.719Z,91380.34
2018-02-22T02:10:05.764Z,91381.06
2018-02-22T02:10:54.893Z,91377.86
2018-02-22T02:11:43.931Z,91375.09
2018-02-22T02:12:32.963Z,91375.98
2018-02-22T02:13:22.001Z,91382.09
2018-02-22T02:14:11.072Z,91374.70
2018-02-22T02:15:00.132Z,91376.38
2018-02-22T02:15:49.218Z,91376.80
2018-02-22T02:16:38.255Z,91380.81
2018-02-22T02:17:27.304Z,91381.25
2018-02-22T02:18:16.371Z,91383.11
2018-02-22T02:19:05.406Z,91384.89
2018-02-22T02:19:54.434Z,91381.09
2018-02-22T02:20:43.544Z,91387.02
2018-02-22T02:21:33.125Z,91384.34
2018-02-22T02:22:22.193Z,91376.72
2018-02-22T02:23:11.246Z,91375.13
2018-02-22T02:24:00.291Z,91381.24
2018-02-22T02:24:49.328Z,91375.22
2018-02-22T02:25:38.381Z,91372.03
2018-02-22T02:26:27.429Z,91374.59
2018-02-22T02:27:16.604Z,91375.67
2018-02-22T02:28:08.528Z,91377.84
2018-02-22T02:28:57.587Z,91372.28
2018-02-22T02:29:46.627Z,91376.09
2018-02-22T02:30:35.673Z,91378.84
2018-02-22T02:31:25.030Z,91372.64
2018-02-22T02:32:14.076Z,91369.26
2018-02-22T02:33:03.185Z,91376.69
2018-02-22T02:33:52.236Z,91375.71
2018-02-22T02:34:41.312Z,91368.09
2018-02-22T02:35:30.384Z,91369.33
2018-02-22T02:36:19.452Z,91371.01
2018-02-22T02:37:08.490Z,91367.52
2018-02-22T02:37:57.535Z,91365.04
2018-02-22T02:38:46.869Z,91367.43
2018-02-22T02:39:35.917Z,91373.45
2018-02-22T02:40:24.961Z,91368.38
2018-02-22T02:41:14.066Z,91369.27
2018-02-22T02:42:03.128Z,91369.99
2018-02-22T02:42:52.159Z,91369.25
2018-02-22T02:43:41.199Z,91369.09
2018-02-22T02:44:30.261Z,91368.38
2018-02-22T02:45:19.319Z,91369.50
2018-02-22T02:46:08.381Z,91366.14
2018-02-22T02:46:57.520Z,91371.05
2018-02-22T02:47:46.565Z,91371.13
2018-02-22T02:48:35.627Z,91372.45
2018-02-22T02:49:24.696Z,91370.57
2018-02-22T02:50:13.730Z,91376.95
2018-02-22T02:51:02.781Z,91370.05
2018-02-22T02:51:51.828Z,91372.45
2018-02-22T02:52:40.914Z,91373.17
2018-02-22T02:53:29.971Z,91369.37
2018-02-22T02:54:19.030Z,91367.28
2018-02-22T02:55:08.111Z,91371.02
2018-02-22T02:55:57.164Z,91371.03
2018-02-22T02:56:46.235Z,91363.61
2018-02-22T02:57:35.444Z,91368.11
2018-02-22T02:58:24.708Z,91374.04
2018-02-22T02:59:13.762Z,91367.84
2018-02-22T03:00:02.810Z,91369.62
2018-02-22T03:00:51.957Z,91368.55
2018-02-22T03:01:40.996Z,91364.92
2018-02-22T03:02:30.130Z,91367.94
2018-02-22T03:03:19.196Z,91367.15
2018-02-22T03:04:08.244Z,91370.69
2018-02-22T03:04:57.315Z,91365.39
2018-02-22T03:05:46.390Z,91369.03
2018-02-22T03:06:35.433Z,91366.67
2018-02-22T03:07:24.494Z,91368.70
2018-02-22T03:08:13.581Z,91362.01
2018-02-22T03:09:02.623Z,91368.48
2018-02-22T03:09:51.679Z,91366.98
2018-02-22T03:10:40.726Z,91364.48
2018-02-22T03:11:29.779Z,91370.41
2018-02-22T03:12:18.822Z,91362.05
2018-02-22T03:13:07.864Z,91366.23
2018-02-22T03:13:57.135Z,91362.16
2018-02-22T03:14:46.180Z,91365.80
2018-02-22T03:15:35.220Z,91363.32
2018-02-22T03:16:24.296Z,91361.29
2018-02-22T03:17:13.338Z,91363.08
2018-02-22T03:18:02.394Z,91360.85
2018-02-22T03:18:51.445Z,91366.88
2018-02-22T03:19:40.555Z,91365.37
2018-02-22T03:20:29.613Z,91359.34
2018-02-22T03:21:18.664Z,91359.79
2018-02-22T03:22:07.717Z,91361.39
2018-02-22T03:22:56.774Z,91355.55
2018-02-22T03:23:45.857Z,91361.31
2018-02-22T03:24:34.892Z,91358.87
2018-02-22T03:25:23.984Z,91365.26
2018-02-22T03:26:13.035Z,91362.33
2018-02-22T03:27:02.078Z,91362.00
2018-02-22T03:27:51.126Z,91361.39
2018-02-22T03:28:42.830Z,91361.23
2018-02-22T03:29:32.088Z,91362.47
2018-02-22T03:30:21.142Z,91371.68
2018-02-22T03:31:10.207Z,91363.38
2018-02-22T03:31:59.300Z,91366.21
2018-02-22T03:32:48.325Z,91370.81
2018-02-22T03:33:37.384Z,91363.47
2018-02-22T03:34:26.481Z,91366.64
2018-02-22T03:35:15.528Z,91366.47
2018-02-22T03:36:04.593Z,91366.55
2018-02-22T03:36:53.641Z,91365.41
2018-02-22T03:37:42.736Z,91366.66
2018-02-22T03:38:31.876Z,91364.00
2018-02-22T03:39:20.929Z,91361.97
2018-02-22T03:40:09.971Z,91368.97
2018-02-22T03:40:59.044Z,91369.94
2018-02-22T03:41:48.083Z,91367.38
2018-02-22T03:42:37.119Z,91361.97
2018-02-22T03:43:26.168Z,91369.41
2018-02-22T03:44:15.263Z,91367.36
2018-02-22T03:45:04.314Z,91368.33
2018-02-22T03:45:53.364Z,91370.11
2018-02-22T03:46:42.781Z,91368.06
2018-02-22T03:47:31.829Z,91368.78
2018-02-22T03:48:20.861Z,91366.21
2018-02-22T03:49:09.907Z,91367.19
2018-02-22T03:49:58.956Z,91370.73
2018-02-22T03:50:48.010Z,91370.38
2018-02-22T03:51:37.084Z,91370.27
2018-02-22T03:52:26.134Z,91376.47
2018-02-22T03:53:15.187Z,91370.64
2018-02-22T03:54:04.214Z,91374.19
2018-02-22T03:54:53.263Z,91373.81
2018-02-22T03:55:42.310Z,91372.86
2018-02-22T03:56:31.351Z,91379.59
2018-02-22T03:57:20.573Z,91375.25
2018-02-22T03:58:09.630Z,91373.21
2018-02-22T03:58:58.670Z,91377.08
2018-02-22T03:59:47.713Z,91377.09
2018-02-22T04:00:36.776Z,91379.21
2018-02-22T04:01:25.813Z,91375.67
2018-02-22T04:02:14.862Z,91381.33
2018-02-22T04:03:03.935Z,91381.95
2018-02-22T04:03:52.998Z,91380.27
2018-02-22T04:04:42.076Z,91375.03
2018-02-22T04:05:31.330Z,91376.44
2018-02-22T04:06:20.380Z,91380.16
2018-02-22T04:07:09.428Z,91381.31
2018-02-22T04:07:58.710Z,91378.30
2018-02-22T04:08:48.001Z,91383.61
2018-02-22T04:09:37.056Z,91379.53
2018-02-22T04:10:26.102Z,91376.70
2018-02-22T04:11:15.143Z,91381.04
2018-02-22T04:12:04.209Z,91384.05
2018-02-22T04:12:53.245Z,91377.67
2018-02-22T04:13:42.353Z,91379.01
2018-02-22T04:14:31.451Z,91386.81
2018-02-22T04:15:20.483Z,91382.37
2018-02-22T04:16:09.526Z,91384.94
2018-02-22T04:16:58.609Z,91387.07
2018-02-22T04:17:47.646Z,91386.19
2018-02-22T04:18:36.688Z,91380.78
2018-02-22T04:19:25.761Z,91381.39
2018-02-22T04:20:14.829Z,91381.66
2018-02-22T04:21:06.250Z,91380.06
2018-02-22T04:21:55.477Z,91388.58
2018-02-22T04:22:44.514Z,91385.04
2018-02-22T04:23:33.554Z,91383.35
2018-02-22T04:24:22.606Z,91388.23
2018-02-22T04:25:11.649Z,91384.86
2018-02-22T04:26:00.696Z,91389.64
2018-02-22T04:26:49.736Z,91391.86
2018-02-22T04:27:38.835Z,91384.23
2018-02-22T04:28:27.871Z,91390.17
2018-02-22T04:29:17.273Z,91389.02
2018-02-22T04:30:06.344Z,91388.32
2018-02-22T04:30:55.392Z,91385.58
2018-02-22T04:31:44.436Z,91391.15
2018-02-22T04:32:33.491Z,91384.95
2018-02-22T04:33:22.764Z,91394.61
2018-02-22T04:34:11.812Z,91389.55
2018-02-22T04:35:00.866Z,91392.65
2018-02-22T04:35:49.916Z,91388.58
2018-02-22T04:36:38.975Z,91391.42
2018-02-22T04:37:28.113Z,91397.18
2018-02-22T04:38:17.169Z,91389.20
2018-02-22T04:39:06.222Z,91396.30
2018-02-22T04:39:55.263Z,91393.55
2018-02-22T04:40:44.312Z,91393.20
2018-02-22T04:41:33.384Z,91393.30
2018-02-22T04:42:22.450Z,91390.28
2018-02-22T04:43:11.554Z,91394.70
2018-02-22T04:44:00.603Z,91401.27
2018-02-22T04:44:49.646Z,91396.30
2018-02-22T04:45:38.690Z,91391.88
2018-02-22T04:46:27.726Z,91394.27
2018-02-22T04:47:16.779Z,91386.83
2018-02-22T04:48:05.865Z,91391.52
2018-02-22T04:48:54.922Z,91395.69
2018-02-22T04:49:43.959Z,91395.24
2018-02-22T04:50:33.009Z,91391.08
2018-02-22T04:51:22.061Z,91386.80
2018-02-22T04:52:11.117Z,91385.22
2018-02-22T04:53:00.173Z,91384.52
2018-02-22T04:53:49.440Z,91387.97
2018-02-22T04:54:38.500Z,91381.33
2018-02-22T04:55:27.552Z,91387.80
2018-02-22T04:56:16.695Z,91386.20
2018-02-22T04:57:05.740Z,91390.98
2018-02-22T04:57:54.797Z,91396.04
2018-02-22T04:58:43.858Z,91394.09
2018-02-22T04:59:32.906Z,91398.52
2018-02-22T05:00:21.956Z,91395.25
2018-02-22T05:01:11.036Z,91396.92
2018-02-22T05:02:03.179Z,91394.91
2018-02-22T05:02:52.214Z,91396.84
2018-02-22T05:03:41.304Z,91397.34
2018-02-22T05:04:30.343Z,91400.42
2018-02-22T05:05:19.396Z,91397.14
2018-02-22T05:06:08.445Z,91403.94
2018-02-22T05:06:57.505Z,91401.88
2018-02-22T05:07:46.557Z,91398.61
2018-02-22T05:08:35.608Z,91401.53
2018-02-22T05:09:24.966Z,91400.46
2018-02-22T05:10:14.002Z,91397.88
2018-02-22T05:11:03.048Z,91397.80
2018-02-22T05:11:52.096Z,91401.52
2018-02-22T05:12:41.147Z,91401.98
2018-02-22T05:13:30.238Z,91398.81
2018-02-22T05:14:19.293Z,91398.46
2018-02-22T05:15:08.349Z,91397.04
2018-02-22T05:15:57.385Z,91400.34
2018-02-22T05:16:46.456Z,91400.50
2018-02-22T05:17:35.498Z,91402.11
2018-02-22T05:18:24.544Z,91397.98
2018-02-22T05:19:13.594Z,91399.95
2018-02-22T05:20:02.639Z,91401.19
2018-02-22T05:20:51.694Z,91404.30
2018-02-22T05:21:40.742Z,91406.24
2018-02-22T05:22:29.901Z,91403.58
2018-02-22T05:23:18.960Z,91410.84
2018-02-22T05:24:08.014Z,91416.31
2018-02-22T05:24:57.075Z,91409.42
2018-02-22T05:25:46.130Z,91410.84
2018-02-22T05:26:35.173Z,91412.77
2018-02-22T05:27:24.226Z,91414.80
2018-02-22T05:28:13.660Z,91409.71
2018-02-22T05:29:02.722Z,91411.47
2018-02-22T05:29:51.804Z,91418.35
2018-02-22T05:30:40.860Z,91415.36
2018-02-22T05:31:29.898Z,91414.11
2018-02-22T05:32:18.928Z,91411.19
2018-02-22T05:33:07.998Z,91413.34
2018-02-22T05:33:57.066Z,91418.30
2018-02-22T05:34:46.115Z,91415.56
2018-02-22T05:35:35.268Z,91416.98
2018-02-22T05:36:24.320Z,91416.02
2018-02-22T05:37:13.369Z,91419.69
2018-02-22T05:38:02.420Z,91415.97
2018-02-22T05:38:51.472Z,91419.93
2018-02-22T05:39:40.526Z,91423.83
2018-02-22T05:40:29.619Z,91425.95
2018-02-22T05:41:18.770Z,91429.02
2018-02-22T05:42:08.002Z,91421.07
2018-02-22T05:42:57.054Z,91427.09
2018-02-22T05:43:46.113Z,91430.72
2018-02-22T05:44:35.230Z,91423.81
2018-02-22T05:45:24.317Z,91430.82
2018-02-22T05:46:13.373Z,91430.64
2018-02-22T05:47:02.658Z,91428.07
2018-02-22T05:47:51.737Z,91431.34
2018-02-22T05:48:40.773Z,91430.72
2018-02-22T05:49:29.806Z,91430.03
2018-02-22T05:50:18.839Z,91427.47
2018-02-22T05:51:07.870Z,91434.20
2018-02-22T05:51:56.931Z,91428.89
2018-02-22T05:52:46.005Z,91435.89
2018-02-22T05:53:35.135Z,91433.69
2018-02-22T05:54:24.184Z,91429.70
2018-02-22T05:55:13.234Z,91433.87
2018-02-22T05:56:02.277Z,91432.63
2018-02-22T05:56:51.344Z,91433.52
2018-02-22T05:57:40.510Z,91434.42
2018-02-22T05:58:29.592Z,91428.98
2018-02-22T05:59:18.642Z,91440.87
2018-02-22T06:00:08.561Z,91440.96
2018-02-22T06:00:57.966Z,91438.03
2018-02-22T06:01:47.051Z,91447.80
2018-02-22T06:02:36.143Z,91443.48
2018-02-22T06:03:25.410Z,91442.45
2018-02-22T06:04:14.472Z,91438.47
2018-02-22T06:05:03.515Z,91439.11
2018-02-22T06:05:52.554Z,91431.58
2018-02-22T06:06:41.710Z,91437.42
2018-02-22T06:07:30.758Z,91443.98
2018-02-22T06:08:19.865Z,91440.00
2018-02-22T06:09:08.932Z,91445.41
2018-02-22T06:09:57.982Z,91444.25
2018-02-22T06:10:47.055Z,91445.48
2018-02-22T06:11:36.101Z,91444.59
2018-02-22T06:12:25.154Z,91446.10
2018-02-22T06:13:14.538Z,91445.81
2018-02-22T06:14:03.585Z,91448.75
2018-02-22T06:14:52.643Z,91445.92
2018-02-22T06:15:41.703Z,91443.44
2018-02-22T06:16:30.759Z,91444.59
2018-02-22T06:17:19.831Z,91446.73
2018-02-22T06:18:08.878Z,91447.15
2018-02-22T06:18:58.961Z,91448.21
2018-02-22T06:19:48.081Z,91440.51
2018-02-22T06:20:37.122Z,91447.33
2018-02-22T06:21:26.159Z,91438.74
2018-02-22T06:22:15.259Z,91438.83
2018-02-22T06:23:04.323Z,91437.86
2018-02-22T06:23:53.379Z,91438.39
2018-02-22T06:24:42.466Z,91442.82
2018-02-22T06:25:31.511Z,91446.36
2018-02-22T06:26:20.556Z,91444.42
2018-02-22T06:27:09.596Z,91446.00
2018-02-22T06:27:58.645Z,91454.34
2018-02-22T06:28:47.691Z,91452.48
2018-02-22T06:29:36.743Z,91454.77
2018-02-22T06:30:25.949Z,91455.78
2018-02-22T06:31:14.991Z,91452.41
2018-02-22T06:32:04.978Z,91456.92
2018-02-22T06:32:54.094Z,91453.02
2018-02-22T06:33:43.152Z,91449.06
2018-02-22T06:34:32.210Z,91457.14
2018-02-22T06:35:21.256Z,91462.22
2018-02-22T06:36:10.349Z,91458.13
2018-02-22T06:36:59.416Z,91451.56
2018-02-22T06:37:48.459Z,91458.08
2018-02-22T06:38:37.500Z,91456.83
2018-02-22T06:39:26.547Z,91462.56
2018-02-22T06:40:15.595Z,91460.59
2018-02-22T06:41:04.633Z,91460.58
2018-02-22T06:41:54.011Z,91457.17
2018-02-22T06:42:43.080Z,91457.91
2018-02-22T06:43:32.119Z,91463.52
2018-02-22T06:44:21.170Z,91463.09
2018-02-22T06:45:10.232Z,91462.75
2018-02-22T06:45:59.283Z,91463.28
2018-02-22T06:46:48.324Z,91465.39
2018-02-22T06:47:37.426Z,91470.31
2018-02-22T06:48:26.496Z,91475.98
2018-02-22T06:49:15.543Z,91469.56
2018-02-22T06:50:04.580Z,91472.41
2018-02-22T06:50:53.765Z,91475.23
2018-02-22T06:51:42.810Z,91470.20
2018-02-22T06:52:31.867Z,91471.58
2018-02-22T06:53:20.913Z,91474.27
2018-02-22T06:54:09.964Z,91464.14
2018-02-22T06:54:59.024Z,91466.71
2018-02-22T06:55:48.090Z,91461.98
2018-02-22T06:56:37.192Z,91466.39
2018-02-22T06:57:26.222Z,91463.16
2018-02-22T06:58:15.301Z,91468.06
2018-02-22T06:59:04.432Z,91460.98
2018-02-22T06:59:53.511Z,91459.73
2018-02-22T07:00:42.592Z,91457.00
2018-02-22T07:01:31.644Z,91456.56
2018-02-22T07:02:20.906Z,91458.95
2018-02-22T07:03:09.951Z,91461.61
2018-02-22T07:03:59.001Z,91455.50
2018-02-22T07:04:48.094Z,91458.07
2018-02-22T07:05:37.158Z,91462.86
2018-02-22T07:06:26.244Z,91463.13
2018-02-22T07:07:15.449Z,91460.02
2018-02-22T07:08:04.512Z,91467.02
2018-02-22T07:08:53.556Z,91463.56
2018-02-22T07:09:42.621Z,91471.02
2018-02-22T07:10:31.679Z,91467.91
2018-02-22T07:11:20.721Z,91466.49
2018-02-22T07:12:09.790Z,91470.92
2018-02-22T07:12:58.872Z,91465.96
2018-02-22T07:13:47.942Z,91475.51
2018-02-22T07:14:36.997Z,91467.11
2018-02-22T07:15:26.059Z,91469.30
2018-02-22T07:16:15.101Z,91471.87
2018-02-22T07:17:04.148Z,91471.52
2018-02-22T07:17:53.190Z,91470.36
2018-02-22T07:18:42.260Z,91474.88
2018-02-22T07:19:31.310Z,91475.94
2018-02-22T07:20:20.384Z,91471.85
2018-02-22T07:21:09.431Z,91475.13
2018-02-22T07:21:58.476Z,91473.88
2018-02-22T07:22:47.527Z,91472.09
2018-02-22T07:23:36.577Z,91474.75
2018-02-22T07:24:27.475Z,91469.84
2018-02-22T07:25:16.537Z,91473.13
2018-02-22T07:26:05.643Z,91473.67
2018-02-22T07:26:54.749Z,91475.11
2018-02-22T07:27:43.795Z,91477.16
2018-02-22T07:28:32.846Z,91485.22
2018-02-22T07:29:21.960Z,91481.48
2018-02-22T07:30:11.025Z,91475.19
2018-02-22T07:31:00.089Z,91477.03
2018-02-22T07:31:49.234Z,91474.33
2018-02-22T07:32:38.275Z,91470.77
2018-02-22T07:33:27.336Z,91470.75
2018-02-22T07:34:16.436Z,91468.08
2018-02-22T07:35:05.601Z,91467.47
2018-02-22T07:35:54.654Z,91472.70
2018-02-22T07:36:43.703Z,91470.91
2018-02-22T07:37:32.807Z,91476.03
2018-02-22T07:38:21.864Z,91478.95
2018-02-22T07:39:10.919Z,91472.55
2018-02-22T07:39:59.965Z,91476.10
2018-02-22T07:40:49.171Z,91474.50
2018-02-22T07:41:38.217Z,91478.84
2018-02-22T07:42:30.346Z,91475.02
2018-02-22T07:43:19.408Z,91476.12
2018-02-22T07:44:08.473Z,91477.91
2018-02-22T07:44:57.538Z,91480.36
2018-02-22T07:45:46.592Z,91477.47
2018-02-22T07:46:35.720Z,91480.38
2018-02-22T07:47:24.781Z,91481.80
2018-02-22T07:48:13.850Z,91474.88
2018-02-22T07:49:02.921Z,91471.77
2018-02-22T07:49:51.988Z,91474.69
2018-02-22T07:50:41.038Z,91473.61
2018-02-22T07:51:30.113Z,91478.38
2018-02-22T07:52:19.380Z,91469.84
2018-02-22T07:53:08.457Z,91473.55
2018-02-22T07:53:57.494Z,91476.98
2018-02-22T07:54:46.530Z,91472.30
2018-02-22T07:55:35.570Z,91477.40
2018-02-22T07:56:24.635Z,91468.39
2018-02-22T07:57:13.784Z,91477.52
2018-02-22T07:58:02.829Z,91476.09
2018-02-22T07:58:51.858Z,91476.45
2018-02-22T07:59:40.901Z,91475.29
2018-02-22T08:00:29.944Z,91471.14
2018-02-22T08:01:19.003Z,91475.50
2018-02-22T08:02:08.060Z,91473.05
2018-02-22T08:02:57.145Z,91475.83
2018-02-22T08:03:46.201Z,91471.87
2018-02-22T08:04:35.275Z,91471.25
2018-02-22T08:05:24.315Z,91473.59
2018-02-22T08:06:13.366Z,91469.84
2018-02-22T08:07:02.461Z,91474.70
2018-02-22T08:07:51.517Z,91476.38
2018-02-22T08:08:40.740Z,91482.83
2018-02-22T08:09:29.793Z,91476.75
2018-02-22T08:10:18.857Z,91477.69
2018-02-22T08:11:07.926Z,91481.39
2018-02-22T08:11:57.008Z,91477.91
2018-02-22T08:12:46.076Z,91473.30
2018-02-22T08:13:35.127Z,91480.80
2018-02-22T08:14:25.204Z,91481.52
2018-02-22T08:15:14.261Z,91474.95
2018-02-22T08:16:03.316Z,91480.14
2018-02-22T08:16:52.380Z,91472.56
2018-02-22T08:17:41.519Z,91478.27
2018-02-22T08:18:30.581Z,91475.33
2018-02-22T08:19:19.618Z,91477.31
2018-02-22T08:20:08.644Z,91479.44
2018-02-22T08:20:57.678Z,91479.41
2018-02-22T08:21:46.743Z,91478.89
2018-02-22T08:22:35.787Z,91476.16
2018-02-22T08:23:24.922Z,91478.99
2018-02-22T08:24:14.033Z,91479.48
2018-02-22T08:25:03.089Z,91480.78
2018-02-22T08:25:52.234Z,91484.05
2018-02-22T08:26:41.375Z,91478.63
2018-02-22T08:27:30.431Z,91484.41
2018-02-22T08:28:19.487Z,91480.31
2018-02-22T08:29:08.541Z,91483.98
2018-02-22T08:29:57.596Z,91479.66
2018-02-22T08:30:46.641Z,91485.12
2018-02-22T08:31:35.679Z,91485.55
2018-02-22T08:32:24.772Z,91481.17
2018-02-22T08:33:13.829Z,91477.95
2018-02-22T08:34:02.893Z,91486.75
2018-02-22T08:34:51.961Z,91480.05
2018-02-22T08:35:41.010Z,91482.48
2018-02-22T08:36:30.085Z,91482.91
2018-02-22T08:37:19.143Z,91480.55
2018-02-22T08:38:08.275Z,91478.94
2018-02-22T08:38:57.315Z,91476.94
2018-02-22T08:39:46.370Z,91483.30
2018-02-22T08:40:35.405Z,91479.44
2018-02-22T08:41:24.454Z,91480.24
2018-02-22T08:42:13.521Z,91484.55
2018-02-22T08:43:02.567Z,91481.49
2018-02-22T08:43:51.641Z,91479.66
2018-02-22T08:44:40.730Z,91484.83
2018-02-22T08:45:29.753Z,91478.03
2018-02-22T08:46:18.796Z,91484.77
2018-02-22T08:47:07.847Z,91474.89
2018-02-22T08:47:56.900Z,91477.70
2018-02-22T08:48:45.950Z,91479.06
2018-02-22T08:49:35.218Z,91477.00
2018-02-22T08:50:25.364Z,91478.10
2018-02-22T08:51:14.430Z,91480.95
2018-02-22T08:52:03.503Z,91479.20
2018-02-22T08:52:52.569Z,91479.70
2018-02-22T08:53:41.620Z,91480.30
2018-02-22T08:54:30.774Z,91483.77
2018-02-22T08:55:19.833Z,91478.98
2018-02-22T08:56:08.887Z,91478.66
2018-02-22T08:56:57.931Z,91483.77
2018-02-22T08:57:46.967Z,91483.25
2018-02-22T08:58:36.025Z,91482.88
2018-02-22T08:59:25.183Z,91480.21
2018-02-22T09:00:14.271Z,91480.81
2018-02-22T09:01:03.318Z,91481.08
2018-02-22T09:01:52.355Z,91477.08
2018-02-22T09:02:41.401Z,91475.08
2018-02-22T09:03:30.459Z,91476.31
2018-02-22T09:04:19.495Z,91478.52
2018-02-22T09:05:08.552Z,91475.62
2018-02-22T09:05:57.852Z,91475.98
2018-02-22T09:06:46.888Z,91477.75
2018-02-22T09:07:35.931Z,91469.23
2018-02-22T09:08:24.974Z,91475.59
2018-02-22T09:09:14.058Z,91470.63
2018-02-22T09:10:03.106Z,91473.13
2018-02-22T09:10:52.219Z,91467.82
2018-02-22T09:11:41.256Z,91466.10
2018-02-22T09:12:30.302Z,91473.33
2018-02-22T09:13:19.436Z,91473.49
2018-02-22T09:14:08.600Z,91471.02
2018-02-22T09:14:57.666Z,91475.66
2018-02-22T09:15:46.735Z,91472.66
2018-02-22T09:16:35.809Z,91474.42
2018-02-22T09:17:24.848Z,91474.59
2018-02-22T09:18:13.887Z,91478.52
2018-02-22T09:19:12.910Z,91478.68
2018-02-22T09:20:02.086Z,91476.64
2018-02-22T09:20:51.215Z,91478.17
2018-02-22T09:21:40.309Z,91478.17
2018-02-22T09:22:29.411Z,91477.94
2018-02-22T09:23:18.533Z,91480.92
2018-02-22T09:24:07.643Z,91479.08
2018-02-22T09:24:57.934Z,91483.32
2018-02-22T09:25:47.003Z,91480.33
2018-02-22T09:26:36.069Z,91482.29
2018-02-22T09:27:25.168Z,91476.31
2018-02-22T09:28:14.224Z,91478.13
2018-02-22T09:29:03.272Z,91479.00
2018-02-22T09:29:52.408Z,91481.55
2018-02-22T09:31:55.893Z,91477.45
2018-02-22T09:32:44.959Z,91482.97
2018-02-22T09:33:34.004Z,91478.33
2018-02-22T09:34:23.051Z,91482.19
2018-02-22T09:35:12.178Z,91478.17
2018-02-22T09:36:01.276Z,91484.97
2018-02-22T09:36:50.338Z,91479.09
2018-02-22T09:37:39.382Z,91482.80
2018-02-22T09:38:28.442Z,91484.50